AFR93YT LFPG-LFBO
Flight info
| Callsign | AFR93YT |
|---|---|
| Flight time | N/A |
| Altitude | 35000 |
| Route | ERIXU DCT ETAMO DCT GUERE DCT NARAK |
| Aircraft | A321/M-SDE2E3FGIJ1RWY/HB1 |
Departure
| Time | N/A |
|---|---|
| Airport | Charles de Gaulle International Airport (LFPG) |
Arrival
| Time | 2026-05-05 21:01 |
|---|---|
| Airport | Toulouse-Blagnac Airport (LFBO) |
| Time | Latitude | Longitude | Altitude | Speed | Heading |
|---|---|---|---|---|---|
| 2026-05-05 20:21 | 46.89104 | 2.33434 | 34890 ft | 427 kts | 178° |
| 2026-05-05 20:22 | 46.83180 | 2.33282 | 34889 ft | 426 kts | 190° |
| 2026-05-05 20:22 | 46.77441 | 2.31203 | 34893 ft | 425 kts | 195° |
| 2026-05-05 20:23 | 46.71758 | 2.29015 | 34889 ft | 425 kts | 195° |
| 2026-05-05 20:23 | 46.66037 | 2.26814 | 34891 ft | 425 kts | 195° |
| 2026-05-05 20:24 | 46.60315 | 2.24622 | 34891 ft | 425 kts | 195° |
| 2026-05-05 20:24 | 46.54593 | 2.22436 | 34894 ft | 425 kts | 195° |
| 2026-05-05 20:25 | 46.48881 | 2.20261 | 34902 ft | 424 kts | 195° |
| 2026-05-05 20:25 | 46.43168 | 2.18086 | 34910 ft | 424 kts | 195° |
| 2026-05-05 20:26 | 46.37464 | 2.15925 | 34913 ft | 424 kts | 195° |
| 2026-05-05 20:26 | 46.31766 | 2.13759 | 34910 ft | 423 kts | 195° |
| 2026-05-05 20:27 | 46.26069 | 2.11601 | 34916 ft | 423 kts | 195° |
| 2026-05-05 20:27 | 46.20379 | 2.09465 | 34914 ft | 423 kts | 194° |
| 2026-05-05 20:28 | 46.14574 | 2.08117 | 34913 ft | 423 kts | 188° |
| 2026-05-05 20:28 | 46.08741 | 2.07038 | 34913 ft | 423 kts | 188° |
| 2026-05-05 20:29 | 46.02907 | 2.05966 | 34917 ft | 423 kts | 188° |
| 2026-05-05 20:29 | 45.98057 | 2.05073 | 34919 ft | 423 kts | 188° |
| 2026-05-05 20:30 | 45.92224 | 2.03992 | 34912 ft | 423 kts | 188° |
| 2026-05-05 20:30 | 45.86394 | 2.02916 | 34919 ft | 422 kts | 188° |
| 2026-05-05 20:31 | 45.80562 | 2.01857 | 34926 ft | 422 kts | 188° |
| 2026-05-05 20:31 | 45.74735 | 2.00786 | 34926 ft | 422 kts | 188° |
| 2026-05-05 20:32 | 45.68907 | 1.99710 | 34929 ft | 422 kts | 188° |
| 2026-05-05 20:32 | 45.63087 | 1.98640 | 34934 ft | 422 kts | 188° |
| 2026-05-05 20:33 | 45.57262 | 1.97576 | 34938 ft | 422 kts | 188° |
| 2026-05-05 20:33 | 45.51451 | 1.96527 | 34939 ft | 421 kts | 188° |
| 2026-05-05 20:34 | 45.45643 | 1.95485 | 34944 ft | 420 kts | 188° |
| 2026-05-05 20:34 | 45.39839 | 1.94441 | 34945 ft | 420 kts | 188° |
| 2026-05-05 20:35 | 45.34085 | 1.93402 | 34949 ft | 419 kts | 189° |
| 2026-05-05 20:35 | 45.28293 | 1.92353 | 34951 ft | 420 kts | 188° |
| 2026-05-05 20:36 | 45.22498 | 1.91313 | 34947 ft | 420 kts | 188° |
| 2026-05-05 20:36 | 45.16693 | 1.90272 | 34912 ft | 421 kts | 188° |
| 2026-05-05 20:37 | 45.10853 | 1.89231 | 34912 ft | 424 kts | 188° |
| 2026-05-05 20:37 | 45.04978 | 1.88179 | 34917 ft | 426 kts | 189° |
| 2026-05-05 20:38 | 44.99081 | 1.87119 | 34923 ft | 428 kts | 188° |
| 2026-05-05 20:38 | 44.93168 | 1.86068 | 34925 ft | 428 kts | 189° |
| 2026-05-05 20:39 | 44.87255 | 1.85019 | 34873 ft | 428 kts | 189° |
| 2026-05-05 20:39 | 44.84316 | 1.84499 | 34323 ft | 425 kts | 189° |
| 2026-05-05 20:39 | 44.81348 | 1.83975 | 33056 ft | 435 kts | 188° |
| 2026-05-05 20:39 | 44.78324 | 1.83441 | 32088 ft | 437 kts | 188° |
| 2026-05-05 20:40 | 44.75323 | 1.82914 | 31433 ft | 432 kts | 188° |
| 2026-05-05 20:40 | 44.72363 | 1.82394 | 30827 ft | 426 kts | 188° |
| 2026-05-05 20:40 | 44.69451 | 1.81883 | 30248 ft | 421 kts | 188° |
| 2026-05-05 20:40 | 44.66562 | 1.81373 | 29608 ft | 416 kts | 188° |
| 2026-05-05 20:41 | 44.63711 | 1.80873 | 28902 ft | 408 kts | 188° |
| 2026-05-05 20:41 | 44.60972 | 1.80392 | 28211 ft | 386 kts | 188° |
| 2026-05-05 20:41 | 44.58353 | 1.79930 | 27251 ft | 376 kts | 188° |
| 2026-05-05 20:41 | 44.55770 | 1.79476 | 26711 ft | 371 kts | 188° |
| 2026-05-05 20:42 | 44.53227 | 1.79031 | 26158 ft | 366 kts | 188° |
| 2026-05-05 20:42 | 44.50708 | 1.78591 | 25580 ft | 363 kts | 188° |
| 2026-05-05 20:42 | 44.48247 | 1.78158 | 25001 ft | 359 kts | 188° |
| 2026-05-05 20:42 | 44.45778 | 1.77725 | 24431 ft | 356 kts | 188° |
| 2026-05-05 20:43 | 44.43329 | 1.77297 | 23870 ft | 353 kts | 188° |
| 2026-05-05 20:43 | 44.40876 | 1.76868 | 22710 ft | 357 kts | 188° |
| 2026-05-05 20:43 | 44.38406 | 1.76434 | 21139 ft | 359 kts | 188° |
| 2026-05-05 20:43 | 44.35930 | 1.76002 | 19886 ft | 356 kts | 188° |
| 2026-05-05 20:44 | 44.33547 | 1.75591 | 19556 ft | 335 kts | 188° |
| 2026-05-05 20:44 | 44.31276 | 1.75143 | 19252 ft | 326 kts | 194° |
| 2026-05-05 20:44 | 44.29141 | 1.74188 | 18863 ft | 319 kts | 205° |
| 2026-05-05 20:44 | 44.27195 | 1.72660 | 18525 ft | 327 kts | 215° |
| 2026-05-05 20:45 | 44.23411 | 1.69018 | 17758 ft | 331 kts | 215° |
| 2026-05-05 20:45 | 44.21510 | 1.67200 | 17390 ft | 330 kts | 215° |
| 2026-05-05 20:45 | 44.19618 | 1.65391 | 17027 ft | 329 kts | 215° |
| 2026-05-05 20:46 | 44.17735 | 1.63590 | 16669 ft | 328 kts | 215° |
| 2026-05-05 20:46 | 44.15885 | 1.61821 | 16313 ft | 327 kts | 215° |
| 2026-05-05 20:46 | 44.14015 | 1.60036 | 15950 ft | 325 kts | 215° |
| 2026-05-05 20:46 | 44.12151 | 1.58261 | 15604 ft | 324 kts | 215° |
| 2026-05-05 20:47 | 44.10292 | 1.56495 | 15237 ft | 323 kts | 215° |
| 2026-05-05 20:47 | 44.08441 | 1.54738 | 14880 ft | 322 kts | 215° |
| 2026-05-05 20:47 | 44.06597 | 1.52988 | 14527 ft | 320 kts | 215° |
| 2026-05-05 20:47 | 44.04757 | 1.51244 | 14180 ft | 320 kts | 215° |
| 2026-05-05 20:48 | 44.02917 | 1.49500 | 13825 ft | 320 kts | 215° |
| 2026-05-05 20:48 | 44.01087 | 1.47760 | 13439 ft | 318 kts | 215° |
| 2026-05-05 20:48 | 43.99256 | 1.46054 | 13090 ft | 316 kts | 211° |
| 2026-05-05 20:48 | 43.97250 | 1.44817 | 12739 ft | 316 kts | 198° |
| 2026-05-05 20:49 | 43.95096 | 1.44203 | 12389 ft | 316 kts | 191° |
| 2026-05-05 20:49 | 43.94362 | 1.44034 | 12265 ft | 316 kts | 191° |
| 2026-05-05 20:51 | 43.78459 | 1.45834 | 9772 ft | 296 kts | 144° |
| 2026-05-05 20:51 | 43.76850 | 1.47568 | 9636 ft | 293 kts | 144° |
| 2026-05-05 20:51 | 43.75240 | 1.49294 | 9350 ft | 292 kts | 144° |
| 2026-05-05 20:51 | 43.73636 | 1.51012 | 8998 ft | 291 kts | 144° |
| 2026-05-05 20:52 | 43.72042 | 1.52723 | 8652 ft | 290 kts | 144° |
| 2026-05-05 20:52 | 43.70459 | 1.54431 | 8304 ft | 288 kts | 144° |
| 2026-05-05 20:52 | 43.68881 | 1.56129 | 7954 ft | 287 kts | 144° |
| 2026-05-05 20:52 | 43.67308 | 1.57815 | 7612 ft | 286 kts | 144° |
| 2026-05-05 20:53 | 43.65741 | 1.59496 | 7265 ft | 285 kts | 143° |
| 2026-05-05 20:53 | 43.64179 | 1.61169 | 6918 ft | 283 kts | 144° |
| 2026-05-05 20:53 | 43.62514 | 1.62499 | 6579 ft | 280 kts | 161° |
| 2026-05-05 20:53 | 43.60641 | 1.63125 | 6243 ft | 276 kts | 177° |
| 2026-05-05 20:54 | 43.58760 | 1.63024 | 6013 ft | 264 kts | 190° |
| 2026-05-05 20:54 | 43.56970 | 1.62714 | 5777 ft | 256 kts | 189° |
| 2026-05-05 20:54 | 43.55224 | 1.62427 | 5632 ft | 252 kts | 189° |
| 2026-05-05 20:54 | 43.53480 | 1.62144 | 5479 ft | 253 kts | 189° |
| 2026-05-05 20:55 | 43.51741 | 1.61863 | 5249 ft | 251 kts | 189° |
| 2026-05-05 20:55 | 43.50044 | 1.61368 | 4894 ft | 247 kts | 206° |
| 2026-05-05 20:55 | 43.48654 | 1.60067 | 4551 ft | 240 kts | 230° |
| 2026-05-05 20:55 | 43.47765 | 1.58176 | 4207 ft | 234 kts | 252° |
| 2026-05-05 20:56 | 43.47384 | 1.56055 | 4047 ft | 222 kts | 260° |
| 2026-05-05 20:56 | 43.47211 | 1.54001 | 3959 ft | 214 kts | 279° |
| 2026-05-05 20:56 | 43.47724 | 1.52121 | 3810 ft | 212 kts | 307° |
| 2026-05-05 20:56 | 43.48800 | 1.50786 | 3596 ft | 205 kts | 322° |
| 2026-05-05 20:57 | 43.49923 | 1.49634 | 3384 ft | 197 kts | 321° |
| 2026-05-05 20:57 | 43.51002 | 1.48518 | 3209 ft | 190 kts | 321° |
| 2026-05-05 20:57 | 43.52030 | 1.47454 | 2974 ft | 180 kts | 321° |
| 2026-05-05 20:57 | 43.53011 | 1.46437 | 2734 ft | 173 kts | 320° |
| 2026-05-05 20:58 | 43.53938 | 1.45478 | 2516 ft | 160 kts | 320° |
| 2026-05-05 20:58 | 43.54781 | 1.44604 | 2302 ft | 150 kts | 320° |
| 2026-05-05 20:58 | 43.55589 | 1.43765 | 2093 ft | 140 kts | 319° |
| 2026-05-05 20:58 | 43.56351 | 1.42974 | 1909 ft | 135 kts | 319° |
| 2026-05-05 20:59 | 43.57097 | 1.42200 | 1736 ft | 133 kts | 319° |
| 2026-05-05 20:59 | 43.57837 | 1.41431 | 1544 ft | 133 kts | 320° |
| 2026-05-05 20:59 | 43.58585 | 1.40654 | 1364 ft | 136 kts | 321° |
| 2026-05-05 20:59 | 43.59344 | 1.39864 | 1170 ft | 138 kts | 321° |
| 2026-05-05 21:00 | 43.60113 | 1.39066 | 981 ft | 139 kts | 320° |
| 2026-05-05 21:00 | 43.60890 | 1.38258 | 792 ft | 140 kts | 321° |
| 2026-05-05 21:00 | 43.61669 | 1.37449 | 617 ft | 141 kts | 321° |
| 2026-05-05 21:00 | 43.62441 | 1.36645 | 491 ft | 132 kts | 323° |
| 2026-05-05 21:01 | 43.62934 | 1.36127 | 491 ft | 47 kts | 322° |
| 2026-05-05 21:01 | 43.63121 | 1.35930 | 489 ft | 22 kts | 324° |
| 2026-05-05 21:01 | 43.63297 | 1.35755 | 487 ft | 44 kts | 323° |
| 2026-05-05 21:01 | 43.63506 | 1.35537 | 494 ft | 23 kts | 323° |
| 2026-05-05 21:02 | 43.63634 | 1.35604 | 483 ft | 26 kts | 53° |
| 2026-05-05 21:02 | 43.63720 | 1.35758 | 490 ft | 18 kts | 53° |
| 2026-05-05 21:02 | 43.63779 | 1.35865 | 483 ft | 13 kts | 53° |
| 2026-05-05 21:02 | 43.63810 | 1.35982 | 494 ft | 13 kts | 106° |
| 2026-05-05 21:03 | 43.63743 | 1.36067 | 491 ft | 14 kts | 143° |
| 2026-05-05 21:03 | 43.63665 | 1.36148 | 492 ft | 15 kts | 143° |
| 2026-05-05 21:03 | 43.63582 | 1.36236 | 490 ft | 16 kts | 142° |
| 2026-05-05 21:03 | 43.63492 | 1.36330 | 491 ft | 17 kts | 143° |
| 2026-05-05 21:04 | 43.63395 | 1.36430 | 489 ft | 18 kts | 143° |
| 2026-05-05 21:04 | 43.63291 | 1.36538 | 487 ft | 19 kts | 143° |
| 2026-05-05 21:04 | 43.63182 | 1.36651 | 490 ft | 18 kts | 143° |
| 2026-05-05 21:04 | 43.63081 | 1.36757 | 494 ft | 18 kts | 142° |
| 2026-05-05 21:05 | 43.62987 | 1.36853 | 494 ft | 16 kts | 143° |
| 2026-05-05 21:05 | 43.62956 | 1.36956 | 494 ft | 12 kts | 67° |
| 2026-05-05 21:05 | 43.62991 | 1.37029 | 486 ft | 6 kts | 54° |
| 2026-05-05 21:05 | 43.63015 | 1.37076 | 486 ft | 6 kts | 62° |
| 2026-05-05 21:06 | 43.63010 | 1.37128 | 492 ft | 5 kts | 118° |
| 2026-05-05 21:06 | 43.63005 | 1.37184 | 486 ft | 7 kts | 68° |
| 2026-05-05 21:06 | 43.63018 | 1.37212 | 481 ft | 4 kts | 56° |
| 2026-05-05 21:06 | 43.63031 | 1.37238 | 486 ft | 2 kts | 54° |
| 2026-05-05 21:07 | 43.63035 | 1.37245 | 493 ft | 0 kts | 53° |
| 2026-05-05 21:07 | 43.63036 | 1.37246 | 492 ft | 0 kts | 53° |